Time;durP1;ratioP1;P1;durP2;ratioP2;P2;SDS_P1;SDS_P2;PMS_P1;PMS_P2;Temp;Humidity;BMP_temperature;BMP_pressure;BME280_temperature;BME280_humidity;BME280_pressure;Samples;Min_cycle;Max_cycle;Signal;HPM_P1;HPM_P2
2024/04/01 10:03:57;;;;;;;36.40;7.90;;;;;;;21.53;42.76;97665.91;102387;1295;635893;-82
2024/04/01 10:06:44;;;;;;;50.70;9.00;;;;;;;21.49;42.45;97660.02;105610;1263;95193;-81
2024/04/01 10:09:54;;;;;;;32.10;6.70;;;;;;;21.45;42.39;97658.59;105052;1265;95346;-81
2024/04/01 10:13:04;;;;;;;32.00;7.00;;;;;;;21.44;42.46;97656.27;105325;1263;110570;-81
2024/04/01 10:15:50;;;;;;;42.10;8.00;;;;;;;21.47;42.23;97648.63;104981;1264;95732;-81
2024/04/01 10:18:42;;;;;;;29.70;5.70;;;;;;;21.54;42.33;97645.98;105599;1261;173265;-81
2024/04/01 10:21:38;;;;;;;39.70;7.90;;;;;;;21.69;42.26;97648.13;105695;1260;95277;-81
2024/04/01 10:24:50;;;;;;;47.70;8.60;;;;;;;21.84;41.95;97649.77;105356;1261;95320;-81
2024/04/01 10:27:37;;;;;;;32.40;6.60;;;;;;;21.98;42.01;97653.66;105940;1256;107184;-82
2024/04/01 10:31:08;;;;;;;;;;;;;;;;;;;;;
2024/04/01 10:38:50;;;;;;;;;;;;;;;;;;;;;
2024/04/01 10:43:03;;;;;;;;;;;;;;;;;;;;;
2024/04/01 10:46:05;;;;;;;46.10;8.30;;;;;;;22.32;41.19;97655.33;106698;1253;110006;-83
2024/04/01 10:53:28;;;;;;;;;;;;;;;;;;;;;
2024/04/01 10:57:42;;;;;;;;;;;;;;;;;;;;;
2024/04/01 11:01:25;;;;;;;43.80;8.40;;;;;;;22.36;40.40;97634.00;107433;1270;94779;-82
2024/04/01 11:05:35;;;;;;;30.90;6.40;;;;;;;22.36;40.59;97633.33;107621;1258;112011;-82
2024/04/01 11:10:08;;;;;;;;;;;;;;;;;;;;;
2024/04/01 11:14:18;;;;;;;;;;;;;;;;;;;;;
2024/04/01 11:18:25;;;;;;;45.00;8.60;;;;;;;22.33;40.17;97654.70;105669;1271;97977;-82
2024/04/01 11:21:46;;;;;;;36.60;6.20;;;;;;;22.30;40.01;97646.64;105478;1271;94791;-84
2024/04/01 11:32:27;;;;;;;35.40;8.30;;;;;;;22.23;40.02;97629.90;104693;1290;107669;-81
2024/04/01 11:35:32;;;;;;;30.10;6.40;;;;;;;22.24;40.25;97630.43;105316;1276;96575;-81
2024/04/01 11:39:17;;;;;;;39.80;6.90;;;;;;;22.29;40.07;97622.55;105370;1251;96497;-81
2024/04/01 11:42:30;;;;;;;;;;;;;;;;;;;;;
2024/04/01 11:45:35;;;;;;;32.00;6.90;;;;;;;22.32;40.05;97624.81;105665;1256;96726;-81
2024/04/01 11:48:42;;;;;;;43.90;7.80;;;;;;;22.35;39.99;97618.42;105766;1256;107561;-81
2024/04/01 11:51:59;;;;;;;38.00;7.20;;;;;;;22.37;39.99;97616.62;105979;1254;96582;-81
2024/04/01 11:54:47;;;;;;;37.20;7.40;;;;;;;22.36;39.99;97611.46;105878;1253;96690;-81
2024/04/01 11:57:45;;;;;;;36.70;7.40;;;;;;;22.40;40.08;97606.96;105969;1254;112245;-80
2024/04/01 12:28:12;;;;;;;35.80;7.20;;;;;;;22.71;39.62;97564.24;103871;1277;97874;-81
2024/04/01 12:35:36;;;;;;;27.90;6.70;;;;;;;22.85;39.26;97559.20;105486;1268;110091;-81
2024/04/01 12:39:34;;;;;;;38.40;7.10;;;;;;;22.91;39.41;97558.23;105207;1262;97593;-81
2024/04/01 12:43:09;;;;;;;;;;;;;;;;;;;;;
2024/04/01 12:50:43;;;;;;;25.60;5.60;;;;;;;23.10;39.40;97541.27;105644;1270;97463;-81
2024/04/01 12:54:20;;;;;;;22.20;5.90;;;;;;;23.21;39.52;97532.20;105932;1270;110698;-80
2024/04/01 13:02:24;;;;;;;;;;;;;;;;;;;;;
2024/04/01 13:06:23;;;;;;;;;;;;;;;;;;;;;
2024/04/01 13:10:20;;;;;;;;;;;;;;;;;;;;;
2024/04/01 13:18:00;;;;;;;33.30;6.00;;;;;;;23.13;39.57;97509.86;104468;1274;96754;-81
2024/04/01 13:42:47;;;;;;;31.40;6.80;;;;;;;23.11;39.41;97494.27;104865;1260;108261;-77
2024/04/01 13:45:35;;;;;;;37.00;7.30;;;;;;;23.10;39.42;97485.79;104829;1260;97069;-77
2024/04/01 13:48:03;;;;;;;31.90;6.30;;;;;;;23.06;39.38;97495.63;104975;1260;96644;-78
2024/04/01 13:54:59;;;;;;;34.50;7.10;;;;;;;22.98;39.62;97496.77;105330;1258;96624;-83
2024/04/01 14:03:35;;;;;;;27.60;5.50;;;;;;;22.97;39.65;97496.27;104992;1271;96791;-83
2024/04/01 14:11:24;;;;;;;30.10;6.00;;;;;;;23.02;39.47;97488.48;105158;1267;110469;-83
2024/04/01 14:15:14;;;;;;;32.60;7.10;;;;;;;23.02;39.49;97483.15;106023;1268;96780;-82
2024/04/01 14:18:24;;;;;;;;;;;;;;;;;;;;;
2024/04/01 14:21:42;;;;;;;34.90;6.00;;;;;;;23.04;39.68;97479.52;105367;1260;96620;-82
2024/04/01 14:27:58;;;;;;;25.40;6.30;;;;;;;23.06;39.53;97472.07;105331;1257;109857;-81
2024/04/01 14:31:21;;;;;;;31.20;7.20;;;;;;;23.05;39.74;97469.24;105356;1262;96692;-81
2024/04/01 14:34:14;;;;;;;44.10;6.70;;;;;;;23.07;39.57;97468.31;106003;1260;108297;-81
2024/04/01 14:36:53;;;;;;;35.10;7.00;;;;;;;23.13;39.60;97465.70;106212;1262;96599;-82
2024/04/01 14:39:24;;;;;;;35.10;6.60;;;;;;;23.18;39.76;97465.67;105998;1257;96730;-81
2024/04/01 14:42:15;;;;;;;28.90;7.00;;;;;;;23.24;39.78;97461.46;106214;1257;110485;-83
2024/04/01 14:45:20;;;;;;;32.30;7.00;;;;;;;23.28;39.75;97459.20;106704;1262;96698;-82
2024/04/01 14:48:16;;;;;;;37.20;7.10;;;;;;;23.30;39.68;97452.75;106838;1257;110048;-82
2024/04/01 14:51:08;;;;;;;46.40;7.20;;;;;;;23.30;39.91;97446.73;106141;1256;97896;-82
2024/04/01 14:54:13;;;;;;;39.50;7.20;;;;;;;23.28;39.74;97437.41;105642;1254;96615;-83
2024/04/01 14:57:35;;;;;;;31.60;5.20;;;;;;;23.33;39.68;97436.45;106680;1256;110966;-83
2024/04/01 15:01:04;;;;;;;36.70;6.60;;;;;;;23.36;39.76;97425.33;105731;1257;97538;-82
2024/04/01 15:12:18;;;;;;;29.90;5.40;;;;;;;23.23;39.68;97414.35;106600;1257;96713;-82
2024/04/01 15:15:21;;;;;;;38.70;6.90;;;;;;;23.24;39.63;97418.10;105817;1254;110961;-82
2024/04/01 15:18:19;;;;;;;32.10;6.10;;;;;;;23.26;39.60;97421.50;105782;1257;96603;-82
2024/04/01 15:21:43;;;;;;;;;;;;;;;;;;;;;
2024/04/01 15:25:15;;;;;;;28.60;5.50;;;;;;;23.37;39.56;97416.73;106133;1256;96610;-82
2024/04/01 15:28:19;;;;;;;44.40;8.40;;;;;;;23.39;39.48;97421.55;106728;1256;96513;-82
2024/04/01 15:31:48;;;;;;;38.80;6.60;;;;;;;23.37;39.47;97419.11;106283;1254;110214;-82
2024/04/01 15:34:51;;;;;;;37.80;7.00;;;;;;;23.36;39.44;97422.73;106399;1259;96730;-82
2024/04/01 15:38:24;;;;;;;40.50;7.90;;;;;;;23.36;39.41;97417.64;106134;1264;106118;-82
2024/04/01 15:41:36;;;;;;;33.40;6.60;;;;;;;23.31;39.23;97413.45;105267;1272;97486;-81
2024/04/01 15:45:58;;;;;;;;;;;;;;;;;;;;;
2024/04/01 15:48:42;;;;;;;33.50;7.20;;;;;;;23.30;39.19;97411.57;106152;1265;109489;-82
2024/04/01 15:52:41;;;;;;;;;;;;;;;;;;;;;
2024/04/01 15:56:10;;;;;;;43.30;8.20;;;;;;;23.18;39.09;97415.07;105213;1264;108578;-82
2024/04/01 15:59:27;;;;;;;35.20;6.20;;;;;;;23.17;39.20;97408.53;106183;1266;97908;-80
2024/04/01 16:02:29;;;;;;;32.10;5.60;;;;;;;23.12;39.26;97407.41;106747;1253;97951;-82
2024/04/01 16:05:41;;;;;;;;;;;;;;;;;;;;;
2024/04/01 16:12:17;;;;;;;;;;;;;;;;;;;;;
2024/04/01 16:15:21;;;;;;;38.90;7.60;;;;;;;22.71;39.05;97388.85;105816;1256;97922;-82
2024/04/01 16:18:48;;;;;;;40.60;7.60;;;;;;;22.59;39.05;97383.60;105885;1259;98054;-82
2024/04/01 16:21:49;;;;;;;36.90;7.20;;;;;;;22.48;39.02;97381.96;105949;1257;112340;-82
2024/04/01 16:25:37;;;;;;;43.70;8.50;;;;;;;22.37;39.08;97379.67;106357;1257;98041;-83
2024/04/01 16:29:11;;;;;;;;;;;;;;;;;;;;;
2024/04/01 16:36:49;;;;;;;31.80;6.50;;;;;;;22.06;39.21;97372.13;105715;1256;98082;-83
2024/04/01 16:44:34;;;;;;;;;;;;;;;;;;;;;
2024/04/01 16:51:27;;;;;;;40.40;7.80;;;;;;;21.91;38.86;97394.33;106640;1257;98465;-82
2024/04/01 16:54:34;;;;;;;47.70;8.30;;;;;;;21.89;39.05;97391.98;105935;1256;97964;-82
2024/04/01 16:57:54;;;;;;;45.00;7.90;;;;;;;21.84;38.87;97399.81;106002;1253;112516;-82
2024/04/01 17:01:44;;;;;;;;;;;;;;;;;;;;;
2024/04/01 17:05:30;;;;;;;;;;;;;;;;;;;;;
2024/04/01 17:09:08;;;;;;;;;;;;;;;;;;;;;
2024/04/01 17:12:26;;;;;;;34.80;6.70;;;;;;;21.60;39.02;97431.42;105834;1257;97922;-83
2024/04/01 17:16:19;;;;;;;;;;;;;;;;;;;;;
2024/04/01 17:20:14;;;;;;;37.90;7.40;;;;;;;21.45;38.94;97431.06;107033;1256;98027;-83
2024/04/01 17:36:52;;;;;;;;;;;;;;;;;;;;;
2024/04/01 17:41:06;;;;;;;;;;;;;;;;;;;;;
2024/04/01 17:53:12;;;;;;;;;;;;;;;;;;;;;
2024/04/01 18:08:10;;;;;;;42.40;8.10;;;;;;;20.97;39.46;97459.44;102861;1291;98604;-78
2024/04/01 18:11:29;;;;;;;44.90;8.30;;;;;;;20.92;39.52;97455.80;103542;1279;98220;-88
2024/04/01 18:15:31;;;;;;;;;;;;;;;;;;;;;
2024/04/01 18:21:53;;;;;;;42.30;7.60;;;;;;;20.72;39.78;97477.90;104655;1267;108122;-88
2024/04/01 18:24:21;;;;;;;39.70;7.00;;;;;;;20.66;39.78;97484.65;104188;1274;98123;-75
2024/04/01 18:26:48;;;;;;;35.00;7.60;;;;;;;20.62;39.90;97489.60;104571;1265;98004;-75
2024/04/01 18:29:19;;;;;;;40.10;8.20;;;;;;;20.56;39.81;97492.19;104658;1271;110859;-76
2024/04/01 18:31:49;;;;;;;43.50;8.60;;;;;;;20.50;39.96;97490.38;104724;1268;99312;-76
2024/04/01 18:35:04;;;;;;;;;;;;;;;;;;;;;
2024/04/01 18:38:31;;;;;;;;;;;;;;;;;;;;;
2024/04/01 18:47:01;;;;;;;;;;;;;;;;;;;;;
2024/04/01 18:50:35;;;;;;;45.20;8.50;;;;;;;20.28;40.23;97463.55;104990;1265;98260;-86
2024/04/01 18:55:05;;;;;;;35.30;6.90;;;;;;;20.27;40.30;97455.17;105581;1263;107961;-87
2024/04/01 18:58:53;;;;;;;;;;;;;;;;;;;;;
2024/04/01 19:03:01;;;;;;;;;;;;;;;;;;;;;
2024/04/01 19:07:22;;;;;;;;;;;;;;;;;;;;;
2024/04/01 19:11:07;;;;;;;;;;;;;;;;;;;;;
2024/04/01 19:36:32;;;;;;;;;;;;;;;;;;;;;
2024/04/01 19:49:08;;;;;;;;;;;;;;;;;;;;;
2024/04/01 20:02:15;;;;;;;;;;;;;;;;;;;;;
2024/04/01 20:06:20;;;;;;;;;;;;;;;;;;;;;
2024/04/01 20:19:26;;;;;;;;;;;;;;;;;;;;;
2024/04/01 20:32:02;;;;;;;22.90;6.20;;;;;;;19.46;40.85;97394.96;103400;1288;111604;-89
2024/04/01 20:43:51;;;;;;;;;;;;;;;;;;;;;
2024/04/01 20:59:49;;;;;;;;;;;;;;;;;;;;;
2024/04/01 21:04:15;;;;;;;;;;;;;;;;;;;;;
2024/04/01 21:08:07;;;;;;;;;;;;;;;;;;;;;
2024/04/01 21:16:35;;;;;;;;;;;;;;;;;;;;;
2024/04/01 21:33:45;;;;;;;;;;;;;;;;;;;;;
2024/04/01 21:37:52;;;;;;;;;;;;;;;;;;;;;
2024/04/01 21:45:09;;;;;;;;;;;;;;;;;;;;;
2024/04/01 21:49:45;;;;;;;28.70;6.00;;;;;;;19.28;40.80;97310.98;103133;1283;98305;-89
2024/04/01 22:05:40;;;;;;;;;;;;;;;;;;;;;
2024/04/01 22:21:31;;;;;;;21.70;4.80;;;;;;;18.72;40.81;97284.50;102543;1301;98098;-88
2024/04/01 23:52:38;;;;;;;;;;;;;;;;;;;;;
2024/04/01 23:57:04;;;;;;;22.40;4.70;;;;;;;17.38;41.17;97155.05;107954;1254;95337;-86
